createdAt,value
2022-10-17T00:00:43.471Z,100857.28
2022-10-17T00:03:07.536Z,100853.25
2022-10-17T00:05:14.021Z,100852.54
2022-10-17T00:07:20.356Z,100846.37
2022-10-17T00:09:26.555Z,100849.45
2022-10-17T00:11:32.787Z,100854.34
2022-10-17T00:13:39.326Z,100857.34
2022-10-17T00:15:46.309Z,100862.74
2022-10-17T00:17:52.753Z,100863.86
2022-10-17T00:20:01.045Z,100867.85
2022-10-17T00:22:07.313Z,100866.22
2022-10-17T00:24:13.720Z,100869.23
2022-10-17T00:26:22.172Z,100873.98
2022-10-17T00:28:28.281Z,100877.29
2022-10-17T00:30:35.574Z,100878.46
2022-10-17T00:32:41.742Z,100879.43
2022-10-17T00:34:48.260Z,100883.71
2022-10-17T00:36:54.365Z,100883.85
2022-10-17T00:39:01.149Z,100886.16
2022-10-17T00:41:10.160Z,100891.13
2022-10-17T00:43:19.822Z,100891.00
2022-10-17T00:45:32.338Z,100890.05
2022-10-17T00:47:38.861Z,100899.11
2022-10-17T00:49:45.658Z,100904.45
2022-10-17T00:51:56.493Z,100906.51
2022-10-17T00:54:05.133Z,100915.80
2022-10-17T00:56:12.249Z,100910.02
2022-10-17T00:58:20.335Z,100912.41
2022-10-17T01:00:27.547Z,100908.82
2022-10-17T01:02:34.064Z,100914.30
2022-10-17T01:04:43.196Z,100922.09
2022-10-17T01:06:49.356Z,100925.34
2022-10-17T01:08:55.905Z,100927.14
2022-10-17T01:11:07.501Z,100930.55
2022-10-17T01:13:17.574Z,100934.48
2022-10-17T01:16:07.332Z,100940.04
2022-10-17T01:18:31.619Z,100948.09
2022-10-17T01:21:15.049Z,100955.20
2022-10-17T01:23:29.913Z,100965.09
2022-10-17T01:25:52.240Z,100973.11
2022-10-17T01:28:11.401Z,100983.55
2022-10-17T01:30:38.514Z,100987.14
2022-10-17T01:32:55.832Z,100989.56
2022-10-17T01:35:14.611Z,100997.98
2022-10-17T01:37:55.142Z,101002.25
2022-10-17T01:40:26.051Z,101006.96
2022-10-17T01:42:43.490Z,101016.31
2022-10-17T01:44:58.245Z,101019.66
2022-10-17T01:47:09.889Z,101023.46
2022-10-17T01:49:20.555Z,101025.95
2022-10-17T01:51:40.248Z,101031.06
2022-10-17T01:54:01.024Z,101035.99
2022-10-17T01:56:10.792Z,101041.86
2022-10-17T01:58:28.171Z,101048.23
2022-10-17T02:00:37.586Z,101055.78
2022-10-17T02:02:45.392Z,101057.80
2022-10-17T02:04:54.379Z,101061.25
2022-10-17T02:07:13.283Z,101065.19
2022-10-17T02:09:27.086Z,101071.79
2022-10-17T02:11:35.654Z,101080.63
2022-10-17T02:14:03.244Z,101090.23
2022-10-17T02:16:24.882Z,101096.41
2022-10-17T02:19:04.125Z,101097.57
2022-10-17T02:21:28.829Z,101100.88
2022-10-17T02:23:58.458Z,101108.14
2022-10-17T02:26:09.374Z,101111.17
2022-10-17T02:28:18.976Z,101114.94
2022-10-17T02:30:35.193Z,101124.32
2022-10-17T02:32:54.717Z,101125.90
2022-10-17T02:35:05.279Z,101134.58
2022-10-17T02:37:16.393Z,101133.14
2022-10-17T02:39:24.099Z,101139.41
2022-10-17T02:41:31.670Z,101142.14
2022-10-17T02:43:39.315Z,101143.33
2022-10-17T02:45:47.711Z,101145.70
2022-10-17T02:48:09.929Z,101152.84
2022-10-17T02:50:16.540Z,101158.44
2022-10-17T02:52:31.235Z,101163.41
2022-10-17T02:54:44.682Z,101167.65
2022-10-17T02:57:02.395Z,101169.56
2022-10-17T02:59:14.944Z,101176.34
2022-10-17T03:01:23.443Z,101180.02
2022-10-17T03:03:32.996Z,101185.26
2022-10-17T03:05:40.813Z,101192.63
2022-10-17T03:07:47.123Z,101195.55
2022-10-17T03:09:53.348Z,101196.59
2022-10-17T03:11:59.535Z,101201.41
2022-10-17T03:14:06.126Z,101203.23
2022-10-17T03:16:12.403Z,101209.90
2022-10-17T03:18:19.059Z,101211.98
2022-10-17T03:20:26.046Z,101215.52
2022-10-17T03:22:32.650Z,101214.66
2022-10-17T03:24:40.008Z,101220.81
2022-10-17T03:28:54.481Z,101224.58
2022-10-17T03:31:01.518Z,101228.45
2022-10-17T03:33:08.202Z,101227.14
2022-10-17T03:35:15.141Z,101229.23
2022-10-17T03:37:24.311Z,101232.02
2022-10-17T03:39:30.530Z,101238.59
2022-10-17T03:41:37.132Z,101240.84
2022-10-17T03:43:43.345Z,101244.52
2022-10-17T03:45:49.419Z,101244.61
2022-10-17T03:47:56.380Z,101251.23
2022-10-17T03:50:03.056Z,101255.38
2022-10-17T03:52:16.546Z,101262.79
2022-10-17T03:54:22.505Z,101271.92
2022-10-17T03:56:29.577Z,101269.07
2022-10-17T03:58:41.865Z,101268.97
2022-10-17T04:00:49.382Z,101267.88
2022-10-17T04:02:55.942Z,101272.98
2022-10-17T04:05:02.551Z,101278.33
2022-10-17T04:07:09.557Z,101278.57
2022-10-17T04:09:17.758Z,101279.59
2022-10-17T04:11:38.693Z,101279.75
2022-10-17T04:13:45.728Z,101286.79
2022-10-17T04:16:06.960Z,101293.99
2022-10-17T04:18:15.217Z,101300.14
2022-10-17T04:20:22.563Z,101301.45
2022-10-17T04:22:29.486Z,101305.56
2022-10-17T04:24:36.551Z,101309.05
2022-10-17T04:26:52.344Z,101308.48
2022-10-17T04:29:00.103Z,101314.96
2022-10-17T04:31:10.179Z,101316.02
2022-10-17T04:33:35.796Z,101314.16
2022-10-17T04:35:42.625Z,101313.96
2022-10-17T04:37:49.670Z,101319.14
2022-10-17T04:39:57.704Z,101315.85
2022-10-17T04:42:03.846Z,101315.55
2022-10-17T04:44:11.307Z,101317.98
2022-10-17T04:46:20.912Z,101317.70
2022-10-17T04:48:28.167Z,101316.13
2022-10-17T04:50:34.246Z,101315.05
2022-10-17T04:53:05.115Z,101315.23
2022-10-17T04:55:11.341Z,101316.21
2022-10-17T04:57:19.801Z,101316.72
2022-10-17T04:59:33.181Z,101318.88
2022-10-17T05:01:51.723Z,101323.52
2022-10-17T05:03:57.867Z,101325.90
2022-10-17T05:06:09.405Z,101323.91
2022-10-17T05:08:17.418Z,101323.69
2022-10-17T05:10:23.858Z,101326.33
2022-10-17T05:12:31.612Z,101327.77
2022-10-17T05:14:38.016Z,101326.45
2022-10-17T05:16:44.244Z,101329.96
2022-10-17T05:18:56.461Z,101334.88
2022-10-17T05:21:06.916Z,101337.45
2022-10-17T05:23:15.548Z,101337.45
2022-10-17T05:25:22.525Z,101340.40
2022-10-17T05:27:28.815Z,101344.14
2022-10-17T05:29:36.494Z,101343.04
2022-10-17T05:31:48.783Z,101345.12
2022-10-17T05:33:55.077Z,101342.98
2022-10-17T05:36:01.908Z,101348.22
2022-10-17T05:38:08.215Z,101350.04
2022-10-17T05:40:15.326Z,101351.41
2022-10-17T05:42:21.683Z,101355.05
2022-10-17T05:44:27.933Z,101355.45
2022-10-17T05:46:36.483Z,101359.58
2022-10-17T05:48:43.042Z,101359.95
2022-10-17T05:50:49.945Z,101361.07
2022-10-17T05:52:57.177Z,101359.15
2022-10-17T05:55:03.401Z,101356.00
2022-10-17T05:57:10.398Z,101351.95
2022-10-17T05:59:17.830Z,101355.52
2022-10-17T06:01:37.645Z,101356.77
2022-10-17T06:03:43.985Z,101356.70
2022-10-17T06:05:50.218Z,101357.39
2022-10-17T06:08:01.079Z,101361.45
2022-10-17T06:10:14.088Z,101360.09
2022-10-17T06:12:20.712Z,101362.30
2022-10-17T06:14:27.979Z,101358.41
2022-10-17T06:16:39.104Z,101359.67
2022-10-17T06:18:45.307Z,101357.69
2022-10-17T06:20:51.918Z,101362.42
2022-10-17T06:22:58.840Z,101363.30
2022-10-17T06:25:37.383Z,101364.30
2022-10-17T06:27:44.055Z,101362.71
2022-10-17T06:29:52.382Z,101353.67
2022-10-17T06:31:58.601Z,101355.73
2022-10-17T06:34:05.530Z,101358.80
2022-10-17T06:36:13.923Z,101357.98
2022-10-17T06:38:20.944Z,101360.40
2022-10-17T06:40:29.400Z,101359.99
2022-10-17T06:42:36.397Z,101360.30
2022-10-17T06:44:47.066Z,101358.70
2022-10-17T06:47:17.891Z,101358.83
2022-10-17T06:49:28.267Z,101361.05
2022-10-17T06:51:54.706Z,101359.35
2022-10-17T06:54:07.634Z,101361.26
2022-10-17T06:56:32.409Z,101366.13
2022-10-17T06:58:48.727Z,101369.69
2022-10-17T07:01:15.150Z,101372.35
2022-10-17T07:03:22.560Z,101373.75
2022-10-17T07:05:28.538Z,101369.73
2022-10-17T07:07:34.799Z,101376.80
2022-10-17T07:09:43.184Z,101376.70
2022-10-17T07:11:49.468Z,101374.80
2022-10-17T07:13:57.519Z,101376.11
2022-10-17T07:16:03.813Z,101379.03
2022-10-17T07:18:11.365Z,101378.13
2022-10-17T07:20:18.344Z,101380.66
2022-10-17T07:22:24.868Z,101381.09
2022-10-17T07:24:34.719Z,101383.77
2022-10-17T07:26:49.036Z,101383.98
2022-10-17T07:28:57.142Z,101383.56
2022-10-17T07:31:38.615Z,101389.84
2022-10-17T07:35:53.891Z,101389.08
2022-10-17T07:38:00.434Z,101392.44
2022-10-17T07:40:08.687Z,101393.86
2022-10-17T07:42:15.795Z,101397.19
2022-10-17T07:44:22.837Z,101393.69
2022-10-17T07:46:31.250Z,101396.98
2022-10-17T07:48:37.903Z,101399.00
2022-10-17T07:50:44.473Z,101401.73
2022-10-17T07:52:50.636Z,101403.11
2022-10-17T07:54:56.708Z,101406.30
2022-10-17T07:57:03.029Z,101404.77
2022-10-17T07:59:09.715Z,101407.91
2022-10-17T08:01:16.405Z,101410.95
2022-10-17T08:03:22.832Z,101415.30
2022-10-17T08:05:29.450Z,101415.23
2022-10-17T08:07:35.705Z,101415.60
2022-10-17T08:09:41.859Z,101410.34
2022-10-17T08:11:48.280Z,101410.70
2022-10-17T08:13:54.463Z,101414.69
2022-10-17T08:16:06.737Z,101418.05
2022-10-17T08:18:12.492Z,101421.02
2022-10-17T08:20:18.759Z,101419.69
2022-10-17T08:22:24.977Z,101422.45
2022-10-17T08:24:31.199Z,101423.60
2022-10-17T08:26:40.730Z,101426.23
2022-10-17T08:28:50.539Z,101431.51
2022-10-17T08:31:04.821Z,101433.60
2022-10-17T08:33:11.261Z,101434.25
2022-10-17T08:35:17.412Z,101440.08
2022-10-17T08:37:24.585Z,101436.58
2022-10-17T08:39:31.157Z,101440.55
2022-10-17T08:41:40.694Z,101442.83
2022-10-17T08:44:17.077Z,101444.36
2022-10-17T08:46:24.054Z,101449.29
2022-10-17T08:48:34.058Z,101455.47
2022-10-17T08:50:55.571Z,101455.08
2022-10-17T08:53:21.597Z,101457.34
2022-10-17T08:55:36.952Z,101462.59
2022-10-17T08:57:45.889Z,101466.48
2022-10-17T08:59:54.856Z,101468.44
2022-10-17T09:02:16.038Z,101466.89
2022-10-17T09:04:47.102Z,101471.34
2022-10-17T09:07:05.617Z,101476.21
2022-10-17T09:09:17.466Z,101476.14
2022-10-17T09:11:23.409Z,101475.82
2022-10-17T09:13:53.387Z,101477.02
2022-10-17T09:16:17.006Z,101478.45
2022-10-17T09:18:32.588Z,101483.55
2022-10-17T09:20:53.393Z,101480.73
2022-10-17T09:23:18.989Z,101480.73
2022-10-17T09:25:25.232Z,101485.66
2022-10-17T09:27:46.435Z,101481.92
2022-10-17T09:30:03.636Z,101483.06
2022-10-17T09:32:26.256Z,101484.98
2022-10-17T09:34:34.497Z,101487.38
2022-10-17T09:36:42.128Z,101490.33
2022-10-17T09:38:59.730Z,101492.86
2022-10-17T09:41:25.673Z,101494.58
2022-10-17T09:43:34.669Z,101492.89
2022-10-17T09:45:52.612Z,101493.48
2022-10-17T09:48:12.362Z,101491.94
2022-10-17T09:50:28.592Z,101491.02
2022-10-17T09:52:54.960Z,101491.13
2022-10-17T09:55:07.887Z,101491.63
2022-10-17T09:57:15.855Z,101489.05
2022-10-17T09:59:33.848Z,101482.23
2022-10-17T10:01:40.296Z,101482.91
2022-10-17T10:03:47.338Z,101484.99
2022-10-17T10:06:13.609Z,101485.92
2022-10-17T10:08:21.344Z,101482.02
2022-10-17T10:10:30.556Z,101485.71
2022-10-17T10:12:40.248Z,101482.08
2022-10-17T10:14:47.497Z,101483.48
2022-10-17T10:16:57.260Z,101480.95
2022-10-17T10:19:05.891Z,101482.09
2022-10-17T10:21:18.772Z,101480.27
2022-10-17T10:23:25.455Z,101481.95
2022-10-17T10:25:31.904Z,101479.66
2022-10-17T10:27:41.317Z,101475.29
2022-10-17T10:29:53.009Z,101477.44
2022-10-17T10:32:10.740Z,101483.27
2022-10-17T10:34:30.550Z,101482.54
2022-10-17T10:37:06.120Z,101487.13
2022-10-17T10:39:41.402Z,101488.43
2022-10-17T10:41:49.759Z,101492.44
2022-10-17T10:43:57.629Z,101493.95
2022-10-17T10:46:07.843Z,101493.96
2022-10-17T10:48:37.600Z,101492.33
2022-10-17T10:51:14.636Z,101491.08
2022-10-17T10:53:39.323Z,101491.29
2022-10-17T10:56:10.539Z,101490.70
2022-10-17T10:58:47.810Z,101490.96
2022-10-17T11:00:56.287Z,101486.46
2022-10-17T11:03:27.943Z,101491.07
2022-10-17T11:05:59.368Z,101491.67
2022-10-17T11:08:28.968Z,101486.66
2022-10-17T11:10:54.633Z,101486.23
2022-10-17T11:13:05.831Z,101486.49
2022-10-17T11:15:43.412Z,101482.40
2022-10-17T11:17:58.098Z,101482.58
2022-10-17T11:20:29.361Z,101475.88
2022-10-17T11:22:48.026Z,101481.22
2022-10-17T11:25:01.071Z,101481.42
2022-10-17T11:27:10.038Z,101483.38
2022-10-17T11:29:16.339Z,101480.42
2022-10-17T11:31:30.575Z,101478.05
2022-10-17T11:34:00.417Z,101478.62
2022-10-17T11:36:09.810Z,101479.94
2022-10-17T11:38:37.844Z,101491.04
2022-10-17T11:40:50.765Z,101486.61
2022-10-17T11:43:19.348Z,101486.66
2022-10-17T11:45:29.036Z,101486.19
2022-10-17T11:47:46.725Z,101487.14
2022-10-17T11:51:59.635Z,101489.12
2022-10-17T11:52:56.938Z,101485.36
2022-10-17T11:55:21.055Z,101481.23
2022-10-17T11:57:33.904Z,101481.38
2022-10-17T12:00:17.305Z,101483.39
2022-10-17T12:02:50.722Z,101489.67
2022-10-17T12:05:08.038Z,101493.21
2022-10-17T12:07:32.361Z,101495.21
2022-10-17T12:09:50.625Z,101498.17
2022-10-17T12:12:04.801Z,101497.75
2022-10-17T12:14:36.506Z,101497.96
2022-10-17T12:16:47.057Z,101500.18
2022-10-17T12:19:13.781Z,101503.96
2022-10-17T12:21:20.305Z,101499.27
2022-10-17T12:23:32.110Z,101501.78
2022-10-17T12:25:56.904Z,101504.64
2022-10-17T12:28:18.708Z,101504.55
2022-10-17T12:30:29.268Z,101501.60
2022-10-17T12:33:00.018Z,101501.02
2022-10-17T12:35:02.834Z,101497.59
2022-10-17T12:37:12.973Z,101497.19
2022-10-17T12:39:19.122Z,101498.10
2022-10-17T12:41:41.102Z,101499.45
2022-10-17T12:43:52.676Z,101502.45
2022-10-17T12:46:04.185Z,101499.70
2022-10-17T12:48:13.872Z,101503.05
2022-10-17T12:51:12.161Z,101506.46
2022-10-17T12:53:27.384Z,101508.05
2022-10-17T12:55:34.291Z,101507.84
2022-10-17T12:57:58.599Z,101513.95
2022-10-17T13:00:21.523Z,101513.70
2022-10-17T13:02:30.704Z,101515.41
2022-10-17T13:04:38.643Z,101513.44
2022-10-17T13:06:55.252Z,101515.39
2022-10-17T13:09:09.413Z,101520.86
2022-10-17T13:11:16.659Z,101521.95
2022-10-17T13:13:43.447Z,101526.80
2022-10-17T13:15:52.777Z,101527.30
2022-10-17T13:18:01.677Z,101527.63
2022-10-17T13:20:27.534Z,101528.05
2022-10-17T13:22:36.891Z,101529.34
2022-10-17T13:24:43.402Z,101529.36
2022-10-17T13:26:49.769Z,101530.69
2022-10-17T13:29:07.757Z,101532.08
2022-10-17T13:31:34.101Z,101534.89
2022-10-17T13:33:43.345Z,101534.23
2022-10-17T13:36:06.174Z,101532.59
2022-10-17T13:38:14.749Z,101539.29
2022-10-17T13:40:44.584Z,101541.65
2022-10-17T13:42:52.119Z,101545.60
2022-10-17T13:45:00.520Z,101546.98
2022-10-17T13:47:07.095Z,101546.52
2022-10-17T13:49:35.889Z,101545.40
2022-10-17T13:51:47.265Z,101546.05
2022-10-17T13:53:54.008Z,101548.90
2022-10-17T13:56:26.917Z,101554.02
2022-10-17T13:58:45.338Z,101557.27
2022-10-17T14:00:53.751Z,101559.85
2022-10-17T14:02:59.868Z,101559.16
2022-10-17T14:05:17.334Z,101559.77
2022-10-17T14:08:10.070Z,101558.55
2022-10-17T14:10:21.774Z,101566.63
2022-10-17T14:12:27.985Z,101567.19
2022-10-17T14:14:58.070Z,101576.33
2022-10-17T14:17:01.846Z,101577.71
2022-10-17T14:19:25.867Z,101580.48
2022-10-17T14:21:43.411Z,101583.35
2022-10-17T14:23:51.885Z,101589.38
2022-10-17T14:26:15.150Z,101583.99
2022-10-17T14:28:24.406Z,101585.66
2022-10-17T14:30:56.696Z,101587.42
2022-10-17T14:33:09.180Z,101590.41
2022-10-17T14:35:41.101Z,101592.40
2022-10-17T14:37:52.357Z,101605.10
2022-10-17T14:40:02.704Z,101602.73
2022-10-17T14:42:19.963Z,101605.70
2022-10-17T14:44:30.422Z,101605.45
2022-10-17T14:46:38.797Z,101608.33
2022-10-17T14:48:45.508Z,101608.70
2022-10-17T14:51:19.826Z,101608.13
2022-10-17T14:53:29.646Z,101616.45
2022-10-17T14:55:37.978Z,101621.69
2022-10-17T14:57:47.811Z,101622.20
2022-10-17T14:59:56.504Z,101624.48
2022-10-17T15:02:03.325Z,101627.81
2022-10-17T15:04:11.910Z,101627.94
2022-10-17T15:06:55.533Z,101628.92
2022-10-17T15:09:02.008Z,101632.33
2022-10-17T15:11:08.189Z,101634.41
2022-10-17T15:13:33.550Z,101641.91
2022-10-17T15:15:42.900Z,101643.80
2022-10-17T15:17:49.394Z,101646.45
2022-10-17T15:19:56.601Z,101649.11
2022-10-17T15:22:03.487Z,101646.23
2022-10-17T15:24:09.682Z,101648.56
2022-10-17T15:26:17.314Z,101651.52
2022-10-17T15:28:23.364Z,101650.59
2022-10-17T15:30:33.813Z,101653.01
2022-10-17T15:32:39.923Z,101656.67
2022-10-17T15:34:46.845Z,101655.09
2022-10-17T15:36:55.250Z,101664.34
2022-10-17T15:39:03.111Z,101661.77
2022-10-17T15:41:12.302Z,101664.55
2022-10-17T15:43:19.850Z,101668.84
2022-10-17T15:45:26.362Z,101672.02
2022-10-17T15:47:37.197Z,101675.13
2022-10-17T15:49:43.257Z,101673.67
2022-10-17T15:51:55.164Z,101672.31
2022-10-17T15:54:02.861Z,101676.69
2022-10-17T15:56:13.014Z,101673.89
2022-10-17T15:58:20.643Z,101673.83
2022-10-17T16:00:27.106Z,101674.02
2022-10-17T16:02:34.488Z,101671.14
2022-10-17T16:04:40.903Z,101669.21
2022-10-17T16:06:47.217Z,101667.89
2022-10-17T16:08:53.864Z,101665.63
2022-10-17T16:11:00.087Z,101667.91
2022-10-17T16:13:06.445Z,101667.08
2022-10-17T16:15:39.116Z,101664.47
2022-10-17T16:17:45.946Z,101658.40
2022-10-17T16:19:51.914Z,101660.56
2022-10-17T16:22:04.424Z,101661.23
2022-10-17T16:24:14.706Z,101663.56
2022-10-17T16:26:21.310Z,101663.73
2022-10-17T16:28:27.591Z,101662.71
2022-10-17T16:30:34.706Z,101665.73
2022-10-17T16:32:41.269Z,101664.98
2022-10-17T16:34:47.563Z,101662.36
2022-10-17T16:36:54.347Z,101662.52
2022-10-17T16:39:00.971Z,101663.45
2022-10-17T16:41:15.502Z,101665.83
2022-10-17T16:43:21.720Z,101669.80
2022-10-17T16:45:27.943Z,101673.37
2022-10-17T16:47:34.460Z,101670.56
2022-10-17T16:49:44.374Z,101666.23
2022-10-17T16:51:51.871Z,101667.80
2022-10-17T16:54:01.236Z,101667.45
2022-10-17T16:56:09.503Z,101664.88
2022-10-17T16:58:15.567Z,101659.91
2022-10-17T17:00:21.789Z,101661.77
2022-10-17T17:02:27.855Z,101661.77
2022-10-17T17:04:34.062Z,101660.45
2022-10-17T17:06:40.227Z,101660.96
2022-10-17T17:08:46.909Z,101659.55
2022-10-17T17:10:55.300Z,101662.40
2022-10-17T17:13:02.780Z,101663.09
2022-10-17T17:15:09.194Z,101656.71
2022-10-17T17:17:24.538Z,101649.02
2022-10-17T17:19:41.673Z,101653.44
2022-10-17T17:21:54.288Z,101647.63
2022-10-17T17:24:01.942Z,101646.66
2022-10-17T17:26:18.513Z,101644.23
2022-10-17T17:28:24.680Z,101644.50
2022-10-17T17:30:31.058Z,101642.11
2022-10-17T17:32:37.331Z,101641.10
2022-10-17T17:34:43.701Z,101639.22
2022-10-17T17:36:51.368Z,101642.75
2022-10-17T17:39:01.416Z,101635.92
2022-10-17T17:41:08.291Z,101635.52
2022-10-17T17:43:15.276Z,101636.52
2022-10-17T17:45:21.643Z,101636.76
2022-10-17T17:47:31.047Z,101638.45
2022-10-17T17:49:37.919Z,101630.80
2022-10-17T17:51:47.677Z,101629.83
2022-10-17T17:53:54.775Z,101626.84
2022-10-17T17:56:12.733Z,101630.46
2022-10-17T17:58:19.100Z,101623.38
2022-10-17T18:00:25.631Z,101624.13
2022-10-17T18:02:33.016Z,101624.19
2022-10-17T18:04:39.623Z,101622.40
2022-10-17T18:06:46.056Z,101623.27
2022-10-17T18:08:55.894Z,101624.90
2022-10-17T18:11:02.995Z,101627.35
2022-10-17T18:13:09.494Z,101620.56
2022-10-17T18:15:17.420Z,101623.07
2022-10-17T18:17:24.063Z,101624.77
2022-10-17T18:19:30.714Z,101625.46
2022-10-17T18:21:38.483Z,101623.13
2022-10-17T18:23:47.449Z,101622.52
2022-10-17T18:25:58.856Z,101617.15
2022-10-17T18:28:05.758Z,101614.11
2022-10-17T18:30:12.550Z,101610.02
2022-10-17T18:32:18.742Z,101608.40
2022-10-17T18:34:25.094Z,101610.21
2022-10-17T18:36:32.619Z,101606.77
2022-10-17T18:38:39.523Z,101609.15
2022-10-17T18:40:48.624Z,101607.98
2022-10-17T18:42:57.342Z,101605.03
2022-10-17T18:45:06.876Z,101604.23
2022-10-17T18:47:12.698Z,101602.36
2022-10-17T18:49:20.734Z,101599.96
2022-10-17T18:51:27.702Z,101598.34
2022-10-17T18:53:34.879Z,101595.68
2022-10-17T18:55:41.533Z,101593.64
2022-10-17T18:57:51.969Z,101596.38
2022-10-17T18:59:58.003Z,101593.95
2022-10-17T19:02:04.297Z,101587.50
2022-10-17T19:04:11.409Z,101586.85
2022-10-17T19:06:20.884Z,101585.64
2022-10-17T19:08:27.744Z,101585.21
2022-10-17T19:10:35.287Z,101588.78
2022-10-17T19:12:41.842Z,101586.44
2022-10-17T19:14:51.815Z,101589.86
2022-10-17T19:16:58.930Z,101592.59
2022-10-17T19:19:06.946Z,101588.64
2022-10-17T19:21:16.007Z,101587.03
2022-10-17T19:23:24.104Z,101585.90
2022-10-17T19:25:31.525Z,101586.75
2022-10-17T19:27:37.999Z,101584.70
2022-10-17T19:29:45.184Z,101577.95
2022-10-17T19:31:51.451Z,101579.98
2022-10-17T19:33:58.199Z,101575.61
2022-10-17T19:36:09.775Z,101573.48
2022-10-17T19:38:15.871Z,101574.73
2022-10-17T19:40:22.004Z,101564.62
2022-10-17T19:42:28.812Z,101567.40
2022-10-17T19:44:35.276Z,101566.25
2022-10-17T19:46:42.481Z,101557.78
2022-10-17T19:48:49.644Z,101556.90
2022-10-17T19:50:56.262Z,101553.13
2022-10-17T19:53:02.316Z,101550.77
2022-10-17T19:55:09.276Z,101546.07
2022-10-17T19:57:15.518Z,101547.73
2022-10-17T19:59:22.708Z,101543.27
2022-10-17T20:01:31.602Z,101542.06
2022-10-17T20:03:37.832Z,101537.69
2022-10-17T20:05:44.235Z,101533.16
2022-10-17T20:07:50.571Z,101526.21
2022-10-17T20:09:57.123Z,101525.50
2022-10-17T20:12:03.525Z,101521.45
2022-10-17T20:14:09.986Z,101521.43
2022-10-17T20:16:19.565Z,101527.40
2022-10-17T20:18:28.378Z,101529.27
2022-10-17T20:20:38.859Z,101524.67
2022-10-17T20:22:45.533Z,101523.52
2022-10-17T20:24:51.900Z,101522.61
2022-10-17T20:26:58.145Z,101514.36
2022-10-17T20:29:05.859Z,101512.56
2022-10-17T20:31:13.293Z,101511.76
2022-10-17T20:33:19.277Z,101510.20
2022-10-17T20:35:25.854Z,101510.35
2022-10-17T20:37:39.938Z,101502.44
2022-10-17T20:39:55.818Z,101500.30
2022-10-17T20:42:11.980Z,101496.31
2022-10-17T20:44:18.149Z,101500.20
2022-10-17T20:48:53.725Z,101493.58
2022-10-17T20:51:00.202Z,101491.28
2022-10-17T20:53:34.832Z,101486.58
2022-10-17T20:55:34.333Z,101482.89
2022-10-17T20:57:40.681Z,101481.96
2022-10-17T20:59:47.794Z,101477.87
2022-10-17T21:01:55.947Z,101475.55
2022-10-17T21:04:16.218Z,101473.46
2022-10-17T21:06:28.769Z,101473.05
2022-10-17T21:08:34.813Z,101477.34
2022-10-17T21:10:41.062Z,101474.45
2022-10-17T21:12:53.825Z,101465.43
2022-10-17T21:15:01.649Z,101461.97
2022-10-17T21:17:08.937Z,101460.11
2022-10-17T21:19:17.562Z,101454.60
2022-10-17T21:21:27.762Z,101451.54
2022-10-17T21:23:33.894Z,101452.91
2022-10-17T21:25:40.839Z,101454.02
2022-10-17T21:27:47.467Z,101449.01
2022-10-17T21:29:54.073Z,101444.14
2022-10-17T21:32:00.889Z,101442.89
2022-10-17T21:34:16.271Z,101444.06
2022-10-17T21:36:23.660Z,101439.34
2022-10-17T21:38:29.840Z,101435.86
2022-10-17T21:40:36.342Z,101434.05
2022-10-17T21:42:43.744Z,101431.77
2022-10-17T21:44:51.034Z,101437.13
2022-10-17T21:46:57.498Z,101439.23
2022-10-17T21:49:04.089Z,101434.65
2022-10-17T21:51:14.967Z,101435.33
2022-10-17T21:53:22.763Z,101433.77
2022-10-17T21:55:29.294Z,101427.83
2022-10-17T21:57:35.797Z,101426.72
2022-10-17T21:59:42.714Z,101422.04
2022-10-17T22:01:50.032Z,101418.75
2022-10-17T22:04:00.849Z,101420.58
2022-10-17T22:06:37.723Z,101423.23
2022-10-17T22:08:37.507Z,101424.91
2022-10-17T22:10:45.780Z,101423.23
2022-10-17T22:12:52.381Z,101420.66
2022-10-17T22:14:58.949Z,101419.90
2022-10-17T22:17:05.465Z,101415.06
2022-10-17T22:19:14.544Z,101415.81
2022-10-17T22:21:23.279Z,101413.60
2022-10-17T22:23:29.994Z,101414.77
2022-10-17T22:25:36.191Z,101413.34
2022-10-17T22:27:42.855Z,101413.79
2022-10-17T22:29:49.288Z,101407.22
2022-10-17T22:31:55.689Z,101407.39
2022-10-17T22:34:02.949Z,101404.45
2022-10-17T22:36:11.571Z,101404.61
2022-10-17T22:38:18.732Z,101404.56
2022-10-17T22:40:24.853Z,101403.36
2022-10-17T22:42:34.148Z,101399.16
2022-10-17T22:44:40.718Z,101395.86
2022-10-17T22:46:47.207Z,101398.05
2022-10-17T22:48:53.720Z,101399.39
2022-10-17T22:51:00.913Z,101401.89
2022-10-17T22:53:08.076Z,101405.69
2022-10-17T22:55:14.796Z,101400.66
2022-10-17T22:57:21.007Z,101395.87
2022-10-17T22:59:27.427Z,101397.55
2022-10-17T23:01:33.568Z,101401.02
2022-10-17T23:03:39.759Z,101402.98
2022-10-17T23:05:46.500Z,101401.30
2022-10-17T23:07:52.583Z,101399.83
2022-10-17T23:09:58.702Z,101398.54
2022-10-17T23:12:04.951Z,101396.05
2022-10-17T23:14:12.111Z,101393.52
2022-10-17T23:16:18.675Z,101389.91
2022-10-17T23:18:26.539Z,101389.15
2022-10-17T23:20:33.555Z,101393.48
2022-10-17T23:22:39.909Z,101387.70
2022-10-17T23:24:46.997Z,101389.98
2022-10-17T23:26:53.810Z,101394.09
2022-10-17T23:28:59.833Z,101394.27
2022-10-17T23:31:32.227Z,101395.41
2022-10-17T23:33:38.561Z,101392.77
2022-10-17T23:35:44.951Z,101392.64
2022-10-17T23:37:51.140Z,101390.63
2022-10-17T23:39:57.865Z,101388.98
2022-10-17T23:42:04.077Z,101390.83
2022-10-17T23:44:12.699Z,101382.64
2022-10-17T23:46:20.542Z,101386.06
2022-10-17T23:48:27.295Z,101383.35
2022-10-17T23:50:33.724Z,101380.11
2022-10-17T23:52:40.214Z,101379.88
2022-10-17T23:54:46.813Z,101378.79
2022-10-17T23:56:53.700Z,101379.73
2022-10-17T23:59:00.076Z,101377.81
